EZY53NP EGCC-LEBL
Flight info
| Callsign | EZY53NP |
|---|---|
| Flight time | 2h 5m |
| Altitude | 37000 |
| Route | LISTO P18 TELBA L151 KIDLI UN859 SOPIL DCT BALAN DCT EVPOK DCT NARAK DCT GAI DCT LOMRA DCT ROCAN DCT PUMAL |
| Aircraft | A320/M-SDE3FGHIRWY/LB1 |
Departure
| Time | 2026-05-04 13:27 |
|---|---|
| Airport | Manchester Airport (EGCC) |
Arrival
| Time | 2026-05-04 15:32 |
|---|---|
| Airport | Josep Tarradellas Barcelona-El Prat Airport (LEBL) |
| Time | Latitude | Longitude | Altitude | Speed | Heading |
|---|---|---|---|---|---|
| 2026-05-04 12:59 | 53.35935 | -2.27407 | 255 ft | 0 kts | 276° |
| 2026-05-04 13:16 | 53.35934 | -2.27372 | 255 ft | 4 kts | 261° |
| 2026-05-04 13:16 | 53.35943 | -2.27333 | 255 ft | 4 kts | 221° |
| 2026-05-04 13:16 | 53.35961 | -2.27319 | 255 ft | 1 kts | 179° |
| 2026-05-04 13:17 | 53.35951 | -2.27319 | 255 ft | 0 kts | 179° |
| 2026-05-04 13:20 | 53.35945 | -2.27319 | 255 ft | 5 kts | 179° |
| 2026-05-04 13:20 | 53.35893 | -2.27317 | 255 ft | 8 kts | 179° |
| 2026-05-04 13:20 | 53.35839 | -2.27316 | 255 ft | 10 kts | 179° |
| 2026-05-04 13:21 | 53.35776 | -2.27348 | 255 ft | 9 kts | 227° |
| 2026-05-04 13:21 | 53.35726 | -2.27449 | 255 ft | 15 kts | 230° |
| 2026-05-04 13:21 | 53.35649 | -2.27608 | 245 ft | 21 kts | 229° |
| 2026-05-04 13:21 | 53.35538 | -2.27789 | 238 ft | 20 kts | 223° |
| 2026-05-04 13:22 | 53.35446 | -2.27936 | 238 ft | 19 kts | 224° |
| 2026-05-04 13:22 | 53.35342 | -2.28105 | 240 ft | 21 kts | 224° |
| 2026-05-04 13:22 | 53.35236 | -2.28290 | 235 ft | 23 kts | 231° |
| 2026-05-04 13:22 | 53.35141 | -2.28488 | 227 ft | 16 kts | 231° |
| 2026-05-04 13:23 | 53.35077 | -2.28621 | 231 ft | 13 kts | 231° |
| 2026-05-04 13:23 | 53.35021 | -2.28730 | 228 ft | 13 kts | 227° |
| 2026-05-04 13:23 | 53.34961 | -2.28834 | 226 ft | 12 kts | 226° |
| 2026-05-04 13:23 | 53.34905 | -2.28932 | 225 ft | 12 kts | 226° |
| 2026-05-04 13:24 | 53.34839 | -2.29049 | 221 ft | 15 kts | 226° |
| 2026-05-04 13:24 | 53.34790 | -2.29145 | 221 ft | 9 kts | 230° |
| 2026-05-04 13:24 | 53.34744 | -2.29237 | 214 ft | 12 kts | 230° |
| 2026-05-04 13:25 | 53.34611 | -2.29341 | 213 ft | 12 kts | 173° |
| 2026-05-04 13:25 | 53.34542 | -2.29262 | 215 ft | 11 kts | 110° |
| 2026-05-04 13:25 | 53.34570 | -2.29160 | 213 ft | 9 kts | 51° |
| 2026-05-04 13:25 | 53.34607 | -2.29083 | 215 ft | 7 kts | 51° |
| 2026-05-04 13:26 | 53.34629 | -2.29036 | 215 ft | 5 kts | 51° |
| 2026-05-04 13:26 | 53.34771 | -2.28744 | 228 ft | 68 kts | 51° |
| 2026-05-04 13:26 | 53.35207 | -2.27842 | 238 ft | 128 kts | 51° |
| 2026-05-04 13:26 | 53.35862 | -2.26502 | 445 ft | 156 kts | 51° |
| 2026-05-04 13:27 | 53.36536 | -2.25100 | 1150 ft | 155 kts | 50° |
| 2026-05-04 13:27 | 53.37213 | -2.23684 | 1703 ft | 164 kts | 54° |
| 2026-05-04 13:27 | 53.37509 | -2.21763 | 1994 ft | 187 kts | 102° |
| 2026-05-04 13:27 | 53.36766 | -2.19899 | 2261 ft | 208 kts | 148° |
| 2026-05-04 13:28 | 53.35375 | -2.18904 | 2589 ft | 228 kts | 161° |
| 2026-05-04 13:28 | 53.33798 | -2.18020 | 3013 ft | 250 kts | 163° |
| 2026-05-04 13:28 | 53.32058 | -2.17419 | 3711 ft | 260 kts | 176° |
| 2026-05-04 13:28 | 53.30234 | -2.17497 | 4534 ft | 266 kts | 184° |
| 2026-05-04 13:29 | 53.28382 | -2.17713 | 4945 ft | 267 kts | 185° |
| 2026-05-04 13:29 | 53.26514 | -2.17981 | 5718 ft | 270 kts | 185° |
| 2026-05-04 13:29 | 53.24633 | -2.18267 | 6608 ft | 272 kts | 185° |
| 2026-05-04 13:29 | 53.22730 | -2.18564 | 7462 ft | 276 kts | 186° |
| 2026-05-04 13:30 | 53.20808 | -2.18870 | 8290 ft | 279 kts | 186° |
| 2026-05-04 13:30 | 53.18858 | -2.19185 | 9111 ft | 282 kts | 186° |
| 2026-05-04 13:30 | 53.16891 | -2.19501 | 9900 ft | 286 kts | 186° |
| 2026-05-04 13:30 | 53.14878 | -2.19817 | 10466 ft | 300 kts | 186° |
| 2026-05-04 13:31 | 53.12719 | -2.20156 | 10718 ft | 322 kts | 186° |
| 2026-05-04 13:31 | 53.10470 | -2.20511 | 11235 ft | 333 kts | 186° |
| 2026-05-04 13:31 | 53.08142 | -2.20877 | 11935 ft | 338 kts | 186° |
| 2026-05-04 13:31 | 53.05787 | -2.21246 | 12643 ft | 342 kts | 186° |
| 2026-05-04 13:32 | 53.03407 | -2.21617 | 13344 ft | 345 kts | 186° |
| 2026-05-04 13:32 | 53.01009 | -2.21992 | 14030 ft | 348 kts | 186° |
| 2026-05-04 13:32 | 52.98591 | -2.22370 | 14705 ft | 350 kts | 186° |
| 2026-05-04 13:32 | 52.96153 | -2.22746 | 15374 ft | 353 kts | 186° |
| 2026-05-04 13:33 | 52.93716 | -2.23117 | 16014 ft | 355 kts | 186° |
| 2026-05-04 13:33 | 52.91249 | -2.23494 | 16655 ft | 357 kts | 186° |
| 2026-05-04 13:33 | 52.88762 | -2.23882 | 17267 ft | 360 kts | 186° |
| 2026-05-04 13:33 | 52.86263 | -2.24313 | 17862 ft | 362 kts | 190° |
| 2026-05-04 13:34 | 52.83789 | -2.25201 | 18444 ft | 364 kts | 194° |
| 2026-05-04 13:34 | 52.81316 | -2.26165 | 19016 ft | 366 kts | 194° |
| 2026-05-04 13:34 | 52.78820 | -2.27132 | 19555 ft | 370 kts | 194° |
| 2026-05-04 13:34 | 52.76305 | -2.28100 | 20078 ft | 373 kts | 193° |
| 2026-05-04 13:35 | 52.73765 | -2.29075 | 20580 ft | 376 kts | 193° |
| 2026-05-04 13:35 | 52.68563 | -2.30403 | 21534 ft | 383 kts | 179° |
| 2026-05-04 13:35 | 52.65947 | -2.29838 | 21992 ft | 387 kts | 167° |
| 2026-05-04 13:36 | 52.63409 | -2.28330 | 22442 ft | 391 kts | 154° |
| 2026-05-04 13:36 | 52.61076 | -2.25993 | 22884 ft | 394 kts | 147° |
| 2026-05-04 13:36 | 52.58791 | -2.23478 | 23320 ft | 397 kts | 147° |
| 2026-05-04 13:36 | 52.56486 | -2.20951 | 23746 ft | 399 kts | 147° |
| 2026-05-04 13:37 | 52.54169 | -2.18417 | 24169 ft | 402 kts | 147° |
| 2026-05-04 13:37 | 52.51830 | -2.15867 | 24585 ft | 404 kts | 147° |
| 2026-05-04 13:37 | 52.49480 | -2.13309 | 24986 ft | 406 kts | 147° |
| 2026-05-04 13:37 | 52.47918 | -2.11608 | 25242 ft | 408 kts | 147° |
| 2026-05-04 13:38 | 52.44744 | -2.08160 | 25755 ft | 411 kts | 148° |
| 2026-05-04 13:38 | 52.42355 | -2.05573 | 26128 ft | 413 kts | 148° |
| 2026-05-04 13:38 | 52.39954 | -2.02979 | 26492 ft | 414 kts | 148° |
| 2026-05-04 13:38 | 52.37539 | -2.00373 | 26847 ft | 417 kts | 148° |
| 2026-05-04 13:39 | 52.35110 | -1.97751 | 27197 ft | 419 kts | 148° |
| 2026-05-04 13:39 | 52.32675 | -1.95120 | 27542 ft | 421 kts | 148° |
| 2026-05-04 13:39 | 52.30224 | -1.92477 | 27878 ft | 423 kts | 148° |
| 2026-05-04 13:39 | 52.27796 | -1.89863 | 28205 ft | 425 kts | 148° |
| 2026-05-04 13:40 | 52.25324 | -1.87205 | 28519 ft | 427 kts | 148° |
| 2026-05-04 13:40 | 52.22841 | -1.84536 | 28847 ft | 428 kts | 148° |
| 2026-05-04 13:40 | 52.20347 | -1.81862 | 29157 ft | 430 kts | 148° |
| 2026-05-04 13:40 | 52.17835 | -1.79172 | 29452 ft | 432 kts | 148° |
| 2026-05-04 13:41 | 52.15315 | -1.76482 | 29755 ft | 434 kts | 148° |
| 2026-05-04 13:41 | 52.12783 | -1.73783 | 30036 ft | 436 kts | 148° |
| 2026-05-04 13:41 | 52.10246 | -1.71080 | 30299 ft | 437 kts | 148° |
| 2026-05-04 13:42 | 52.05129 | -1.65638 | 30804 ft | 441 kts | 148° |
| 2026-05-04 13:42 | 52.02562 | -1.62909 | 31071 ft | 442 kts | 148° |
| 2026-05-04 13:42 | 51.99978 | -1.60167 | 31338 ft | 443 kts | 148° |
| 2026-05-04 13:42 | 51.97397 | -1.57437 | 31674 ft | 442 kts | 148° |
| 2026-05-04 13:43 | 51.94862 | -1.54762 | 32042 ft | 440 kts | 148° |
| 2026-05-04 13:43 | 51.92292 | -1.52061 | 32393 ft | 439 kts | 148° |
| 2026-05-04 13:43 | 51.89733 | -1.49376 | 32721 ft | 438 kts | 148° |
| 2026-05-04 13:43 | 51.87178 | -1.46693 | 33052 ft | 437 kts | 148° |
| 2026-05-04 13:44 | 51.84632 | -1.44010 | 33370 ft | 436 kts | 148° |
| 2026-05-04 13:44 | 51.82089 | -1.41333 | 33690 ft | 436 kts | 148° |
| 2026-05-04 13:44 | 51.79551 | -1.38666 | 34006 ft | 435 kts | 148° |
| 2026-05-04 13:44 | 51.76925 | -1.36270 | 34317 ft | 433 kts | 156° |
| 2026-05-04 13:45 | 51.74105 | -1.34583 | 34601 ft | 431 kts | 163° |
| 2026-05-04 13:45 | 51.71272 | -1.33158 | 34844 ft | 432 kts | 163° |
| 2026-05-04 13:45 | 51.68404 | -1.31705 | 35080 ft | 432 kts | 163° |
| 2026-05-04 13:45 | 51.65541 | -1.30251 | 35336 ft | 432 kts | 163° |
| 2026-05-04 13:46 | 51.62673 | -1.28796 | 35565 ft | 432 kts | 163° |
| 2026-05-04 13:46 | 51.59808 | -1.27347 | 35770 ft | 432 kts | 163° |
| 2026-05-04 13:46 | 51.56935 | -1.25899 | 35979 ft | 433 kts | 163° |
| 2026-05-04 13:46 | 51.54060 | -1.24453 | 36185 ft | 433 kts | 163° |
| 2026-05-04 13:47 | 51.51181 | -1.23003 | 36384 ft | 433 kts | 163° |
| 2026-05-04 13:47 | 51.48340 | -1.21376 | 36575 ft | 434 kts | 156° |
| 2026-05-04 13:47 | 51.45595 | -1.19340 | 36746 ft | 435 kts | 156° |
| 2026-05-04 13:47 | 51.42849 | -1.17303 | 36936 ft | 435 kts | 156° |
| 2026-05-04 13:48 | 51.37360 | -1.13262 | 37028 ft | 433 kts | 156° |
| 2026-05-04 13:48 | 51.31889 | -1.09256 | 37026 ft | 430 kts | 156° |
| 2026-05-04 13:49 | 51.26451 | -1.05283 | 37024 ft | 429 kts | 156° |
| 2026-05-04 13:49 | 51.21058 | -1.01353 | 37025 ft | 428 kts | 156° |
| 2026-05-04 13:50 | 51.15656 | -0.97412 | 37028 ft | 427 kts | 156° |
| 2026-05-04 13:50 | 51.10260 | -0.93497 | 37032 ft | 426 kts | 156° |
| 2026-05-04 13:51 | 51.04865 | -0.89601 | 37039 ft | 425 kts | 156° |
| 2026-05-04 13:51 | 50.99471 | -0.85715 | 37046 ft | 425 kts | 156° |
| 2026-05-04 13:52 | 50.91444 | -0.79927 | 37044 ft | 424 kts | 157° |
| 2026-05-04 13:53 | 50.86085 | -0.76052 | 37041 ft | 423 kts | 154° |
| 2026-05-04 13:53 | 50.81070 | -0.71146 | 37035 ft | 424 kts | 148° |
| 2026-05-04 13:54 | 50.73621 | -0.63564 | 37034 ft | 425 kts | 149° |
| 2026-05-04 13:55 | 50.66168 | -0.56000 | 37041 ft | 424 kts | 149° |
| 2026-05-04 13:55 | 50.59541 | -0.49312 | 37041 ft | 424 kts | 149° |
| 2026-05-04 13:56 | 50.54564 | -0.44306 | 37033 ft | 424 kts | 149° |
| 2026-05-04 13:57 | 50.47101 | -0.36828 | 37036 ft | 424 kts | 149° |
| 2026-05-04 13:58 | 50.37190 | -0.26915 | 37035 ft | 423 kts | 149° |
| 2026-05-04 13:58 | 50.29723 | -0.19492 | 37040 ft | 424 kts | 149° |
| 2026-05-04 13:59 | 50.24748 | -0.14560 | 37033 ft | 423 kts | 149° |
| 2026-05-04 14:00 | 50.17287 | -0.07171 | 37030 ft | 423 kts | 149° |
| 2026-05-04 14:00 | 50.09692 | -0.00181 | 37032 ft | 421 kts | 159° |
| 2026-05-04 14:01 | 50.04088 | 0.02330 | 37034 ft | 419 kts | 168° |
| 2026-05-04 14:02 | 49.95627 | 0.05659 | 37031 ft | 417 kts | 167° |
| 2026-05-04 14:02 | 49.90007 | 0.07876 | 37032 ft | 416 kts | 167° |
| 2026-05-04 14:03 | 49.84400 | 0.10081 | 37026 ft | 416 kts | 167° |
| 2026-05-04 14:03 | 49.78824 | 0.12259 | 37023 ft | 415 kts | 168° |
| 2026-05-04 14:04 | 49.70417 | 0.15521 | 37022 ft | 414 kts | 168° |
| 2026-05-04 14:04 | 49.64824 | 0.17715 | 37020 ft | 414 kts | 167° |
| 2026-05-04 14:05 | 49.56457 | 0.21108 | 37016 ft | 414 kts | 167° |
| 2026-05-04 14:06 | 49.50888 | 0.23359 | 37012 ft | 413 kts | 167° |
| 2026-05-04 14:06 | 49.45363 | 0.25571 | 37011 ft | 413 kts | 167° |
| 2026-05-04 14:07 | 49.39800 | 0.27787 | 37008 ft | 412 kts | 167° |
| 2026-05-04 14:07 | 49.34255 | 0.29988 | 37006 ft | 411 kts | 167° |
| 2026-05-04 14:08 | 49.28711 | 0.32217 | 37007 ft | 411 kts | 167° |
| 2026-05-04 14:08 | 49.23198 | 0.34549 | 37010 ft | 411 kts | 166° |
| 2026-05-04 14:09 | 49.14933 | 0.38067 | 37007 ft | 411 kts | 167° |
| 2026-05-04 14:10 | 49.06711 | 0.41523 | 37002 ft | 410 kts | 167° |
| 2026-05-04 14:10 | 49.01215 | 0.43828 | 37001 ft | 409 kts | 167° |
| 2026-05-04 14:11 | 48.95724 | 0.46114 | 37000 ft | 408 kts | 167° |
| 2026-05-04 14:11 | 48.87503 | 0.49536 | 36997 ft | 408 kts | 167° |
| 2026-05-04 14:12 | 48.82020 | 0.51805 | 36996 ft | 408 kts | 167° |
| 2026-05-04 14:13 | 48.73839 | 0.55118 | 36994 ft | 407 kts | 168° |
| 2026-05-04 14:13 | 48.68346 | 0.57243 | 36992 ft | 407 kts | 168° |
| 2026-05-04 14:14 | 48.62862 | 0.59368 | 36990 ft | 407 kts | 168° |
| 2026-05-04 14:14 | 48.54644 | 0.62580 | 36987 ft | 406 kts | 168° |
| 2026-05-04 14:15 | 48.43765 | 0.66926 | 36979 ft | 405 kts | 167° |
| 2026-05-04 14:16 | 48.35610 | 0.70280 | 36964 ft | 405 kts | 167° |
| 2026-05-04 14:17 | 48.27445 | 0.73574 | 36971 ft | 405 kts | 167° |
| 2026-05-04 14:18 | 48.19274 | 0.76839 | 36978 ft | 405 kts | 168° |
| 2026-05-04 14:19 | 48.08402 | 0.81091 | 36977 ft | 405 kts | 168° |
| 2026-05-04 14:19 | 48.02953 | 0.83223 | 36978 ft | 405 kts | 168° |
| 2026-05-04 14:20 | 47.97505 | 0.85354 | 36971 ft | 404 kts | 168° |
| 2026-05-04 14:20 | 47.92055 | 0.87475 | 36968 ft | 404 kts | 168° |
| 2026-05-04 14:21 | 47.83907 | 0.90637 | 36968 ft | 403 kts | 168° |
| 2026-05-04 14:21 | 47.78473 | 0.92743 | 36963 ft | 403 kts | 168° |
| 2026-05-04 14:22 | 47.73050 | 0.94849 | 36961 ft | 403 kts | 168° |
| 2026-05-04 14:22 | 47.67628 | 0.96946 | 36960 ft | 403 kts | 168° |
| 2026-05-04 14:23 | 47.59525 | 1.00068 | 36957 ft | 403 kts | 168° |
| 2026-05-04 14:24 | 47.54101 | 1.02154 | 36956 ft | 402 kts | 168° |
| 2026-05-04 14:24 | 47.48672 | 1.04231 | 36956 ft | 402 kts | 168° |
| 2026-05-04 14:25 | 47.43238 | 1.06159 | 36955 ft | 400 kts | 175° |
| 2026-05-04 14:25 | 47.34944 | 1.06249 | 36950 ft | 398 kts | 183° |
| 2026-05-04 14:26 | 47.29416 | 1.06121 | 36945 ft | 397 kts | 182° |
| 2026-05-04 14:26 | 47.23881 | 1.05996 | 36941 ft | 398 kts | 183° |
| 2026-05-04 14:27 | 47.18376 | 1.05866 | 36938 ft | 398 kts | 183° |
| 2026-05-04 14:27 | 47.12834 | 1.05735 | 36941 ft | 398 kts | 183° |
| 2026-05-04 14:28 | 47.07297 | 1.05602 | 36940 ft | 398 kts | 182° |
| 2026-05-04 14:28 | 47.01759 | 1.05480 | 36937 ft | 398 kts | 183° |
| 2026-05-04 14:29 | 46.90705 | 1.04996 | 36936 ft | 398 kts | 184° |
| 2026-05-04 14:30 | 46.85162 | 1.04741 | 36939 ft | 398 kts | 184° |
| 2026-05-04 14:31 | 46.76862 | 1.04394 | 36940 ft | 398 kts | 184° |
| 2026-05-04 14:32 | 46.65768 | 1.03921 | 36951 ft | 399 kts | 184° |
| 2026-05-04 14:32 | 46.60217 | 1.03680 | 36952 ft | 399 kts | 184° |
| 2026-05-04 14:33 | 46.54671 | 1.03452 | 36955 ft | 398 kts | 184° |
| 2026-05-04 14:33 | 46.49152 | 1.04139 | 36956 ft | 402 kts | 169° |
| 2026-05-04 14:34 | 46.43693 | 1.05990 | 36953 ft | 402 kts | 170° |
| 2026-05-04 14:34 | 46.38234 | 1.07812 | 36949 ft | 402 kts | 170° |
| 2026-05-04 14:35 | 46.32819 | 1.09617 | 36945 ft | 402 kts | 170° |
| 2026-05-04 14:35 | 46.27356 | 1.11435 | 36943 ft | 403 kts | 170° |
| 2026-05-04 14:36 | 46.21886 | 1.13253 | 36944 ft | 403 kts | 170° |
| 2026-05-04 14:36 | 46.16423 | 1.15062 | 36945 ft | 403 kts | 170° |
| 2026-05-04 14:37 | 46.10949 | 1.16876 | 36940 ft | 403 kts | 170° |
| 2026-05-04 14:37 | 46.05477 | 1.18676 | 36940 ft | 403 kts | 170° |
| 2026-05-04 14:38 | 46.00006 | 1.20477 | 36937 ft | 403 kts | 170° |
| 2026-05-04 14:38 | 45.94577 | 1.22264 | 36937 ft | 403 kts | 171° |
| 2026-05-04 14:39 | 45.89120 | 1.24055 | 36935 ft | 402 kts | 171° |
| 2026-05-04 14:39 | 45.83661 | 1.25843 | 36935 ft | 402 kts | 171° |
| 2026-05-04 14:40 | 45.75481 | 1.28511 | 36934 ft | 402 kts | 171° |
| 2026-05-04 14:40 | 45.70024 | 1.30292 | 36933 ft | 401 kts | 171° |
| 2026-05-04 14:41 | 45.64577 | 1.32066 | 36930 ft | 401 kts | 171° |
| 2026-05-04 14:42 | 45.53718 | 1.35582 | 36914 ft | 401 kts | 171° |
| 2026-05-04 14:42 | 45.48279 | 1.37340 | 36914 ft | 401 kts | 171° |
| 2026-05-04 14:43 | 45.42829 | 1.39101 | 36929 ft | 401 kts | 171° |
| 2026-05-04 14:43 | 45.37382 | 1.40858 | 36933 ft | 401 kts | 171° |
| 2026-05-04 14:44 | 45.31975 | 1.42594 | 36929 ft | 401 kts | 171° |
| 2026-05-04 14:44 | 45.26531 | 1.44330 | 36911 ft | 401 kts | 172° |
| 2026-05-04 14:45 | 45.22006 | 1.45780 | 36927 ft | 400 kts | 172° |
| 2026-05-04 14:45 | 45.15681 | 1.47806 | 36914 ft | 401 kts | 172° |
| 2026-05-04 14:46 | 45.11121 | 1.49261 | 36920 ft | 401 kts | 172° |
| 2026-05-04 14:46 | 45.05674 | 1.50989 | 36923 ft | 401 kts | 172° |
| 2026-05-04 14:47 | 45.00265 | 1.52700 | 36931 ft | 401 kts | 172° |
| 2026-05-04 14:47 | 44.94823 | 1.54425 | 36930 ft | 400 kts | 172° |
| 2026-05-04 14:48 | 44.89388 | 1.56154 | 36925 ft | 400 kts | 172° |
| 2026-05-04 14:48 | 44.83956 | 1.57879 | 36929 ft | 400 kts | 172° |
| 2026-05-04 14:49 | 44.78513 | 1.59590 | 36931 ft | 400 kts | 173° |
| 2026-05-04 14:49 | 44.73070 | 1.61300 | 36934 ft | 400 kts | 173° |
| 2026-05-04 14:50 | 44.67638 | 1.63010 | 36931 ft | 399 kts | 173° |
| 2026-05-04 14:50 | 44.62216 | 1.64712 | 36928 ft | 399 kts | 173° |
| 2026-05-04 14:51 | 44.56822 | 1.66397 | 36930 ft | 400 kts | 173° |
| 2026-05-04 14:51 | 44.51390 | 1.68095 | 36933 ft | 399 kts | 173° |
| 2026-05-04 14:52 | 44.45963 | 1.69776 | 36934 ft | 399 kts | 173° |
| 2026-05-04 14:52 | 44.40544 | 1.71457 | 36934 ft | 399 kts | 173° |
| 2026-05-04 14:53 | 44.35120 | 1.73143 | 36934 ft | 399 kts | 173° |
| 2026-05-04 14:53 | 44.29725 | 1.74812 | 36935 ft | 399 kts | 174° |
| 2026-05-04 14:54 | 44.24281 | 1.76203 | 36937 ft | 397 kts | 177° |
| 2026-05-04 14:54 | 44.18820 | 1.77329 | 36938 ft | 397 kts | 178° |
| 2026-05-04 14:55 | 44.13356 | 1.78453 | 36935 ft | 397 kts | 177° |
| 2026-05-04 14:55 | 44.07891 | 1.79643 | 36935 ft | 397 kts | 177° |
| 2026-05-04 14:56 | 44.02433 | 1.80863 | 36937 ft | 397 kts | 177° |
| 2026-05-04 14:56 | 43.96976 | 1.82078 | 36938 ft | 397 kts | 177° |
| 2026-05-04 14:57 | 43.91510 | 1.83012 | 36932 ft | 394 kts | 181° |
| 2026-05-04 14:57 | 43.86077 | 1.83464 | 36932 ft | 393 kts | 183° |
| 2026-05-04 14:58 | 43.80620 | 1.83860 | 36931 ft | 393 kts | 182° |
| 2026-05-04 14:58 | 43.75161 | 1.84361 | 36931 ft | 393 kts | 181° |
| 2026-05-04 14:59 | 43.69701 | 1.84910 | 36930 ft | 393 kts | 181° |
| 2026-05-04 15:00 | 43.61504 | 1.85709 | 36930 ft | 393 kts | 182° |
| 2026-05-04 15:00 | 43.56053 | 1.86233 | 36931 ft | 393 kts | 182° |
| 2026-05-04 15:01 | 43.47881 | 1.87006 | 36919 ft | 392 kts | 182° |
| 2026-05-04 15:01 | 43.42435 | 1.87523 | 36921 ft | 392 kts | 182° |
| 2026-05-04 15:02 | 43.37027 | 1.88047 | 36924 ft | 391 kts | 182° |
| 2026-05-04 15:02 | 43.31560 | 1.88568 | 36912 ft | 391 kts | 182° |
| 2026-05-04 15:03 | 43.26163 | 1.89091 | 36919 ft | 391 kts | 182° |
| 2026-05-04 15:03 | 43.20730 | 1.89610 | 36915 ft | 392 kts | 182° |
| 2026-05-04 15:04 | 43.15291 | 1.90128 | 36920 ft | 392 kts | 182° |
| 2026-05-04 15:04 | 43.09836 | 1.90647 | 36888 ft | 393 kts | 182° |
| 2026-05-04 15:05 | 43.07091 | 1.90906 | 36201 ft | 397 kts | 182° |
| 2026-05-04 15:05 | 43.04326 | 1.91167 | 35335 ft | 401 kts | 182° |
| 2026-05-04 15:05 | 43.01520 | 1.91425 | 34556 ft | 404 kts | 182° |
| 2026-05-04 15:05 | 42.98732 | 1.91686 | 34076 ft | 399 kts | 182° |
| 2026-05-04 15:06 | 42.95986 | 1.91950 | 33589 ft | 394 kts | 182° |
| 2026-05-04 15:06 | 42.93268 | 1.92213 | 33117 ft | 388 kts | 182° |
| 2026-05-04 15:06 | 42.90589 | 1.92474 | 32640 ft | 384 kts | 182° |
| 2026-05-04 15:07 | 42.85320 | 1.92984 | 31706 ft | 375 kts | 183° |
| 2026-05-04 15:07 | 42.82762 | 1.93228 | 31262 ft | 370 kts | 183° |
| 2026-05-04 15:07 | 42.80174 | 1.93469 | 30824 ft | 365 kts | 182° |
| 2026-05-04 15:07 | 42.77692 | 1.93698 | 30407 ft | 360 kts | 182° |
| 2026-05-04 15:08 | 42.75205 | 1.93930 | 29982 ft | 356 kts | 182° |
| 2026-05-04 15:08 | 42.72752 | 1.94161 | 29564 ft | 351 kts | 182° |
| 2026-05-04 15:08 | 42.70337 | 1.94390 | 29162 ft | 345 kts | 182° |
| 2026-05-04 15:08 | 42.67959 | 1.94616 | 28766 ft | 340 kts | 182° |
| 2026-05-04 15:09 | 42.65617 | 1.94914 | 28344 ft | 336 kts | 180° |
| 2026-05-04 15:09 | 42.63308 | 1.95336 | 27931 ft | 334 kts | 178° |
| 2026-05-04 15:09 | 42.61020 | 1.95819 | 27518 ft | 331 kts | 178° |
| 2026-05-04 15:10 | 42.56504 | 1.96813 | 26694 ft | 326 kts | 178° |
| 2026-05-04 15:10 | 42.54273 | 1.97294 | 26280 ft | 323 kts | 178° |
| 2026-05-04 15:10 | 42.49859 | 1.98202 | 25443 ft | 319 kts | 178° |
| 2026-05-04 15:11 | 42.47663 | 1.98644 | 25017 ft | 318 kts | 179° |
| 2026-05-04 15:11 | 42.45482 | 1.99081 | 24568 ft | 316 kts | 178° |
| 2026-05-04 15:11 | 42.43314 | 1.99515 | 24140 ft | 314 kts | 179° |
| 2026-05-04 15:11 | 42.41156 | 1.99947 | 23702 ft | 313 kts | 178° |
| 2026-05-04 15:12 | 42.39008 | 2.00375 | 23253 ft | 311 kts | 178° |
| 2026-05-04 15:12 | 42.36910 | 2.01067 | 22819 ft | 318 kts | 167° |
| 2026-05-04 15:12 | 42.34897 | 2.02382 | 22379 ft | 327 kts | 155° |
| 2026-05-04 15:12 | 42.32980 | 2.04063 | 21926 ft | 329 kts | 154° |
| 2026-05-04 15:13 | 42.31059 | 2.05745 | 21475 ft | 329 kts | 155° |
| 2026-05-04 15:13 | 42.29141 | 2.07418 | 20968 ft | 330 kts | 154° |
| 2026-05-04 15:13 | 42.27201 | 2.09105 | 20416 ft | 333 kts | 154° |
| 2026-05-04 15:13 | 42.25256 | 2.10793 | 19998 ft | 332 kts | 154° |
| 2026-05-04 15:14 | 42.23314 | 2.12479 | 19591 ft | 331 kts | 154° |
| 2026-05-04 15:14 | 42.21385 | 2.14155 | 19193 ft | 329 kts | 154° |
| 2026-05-04 15:14 | 42.19469 | 2.15819 | 18782 ft | 327 kts | 154° |
| 2026-05-04 15:14 | 42.17554 | 2.17480 | 18383 ft | 326 kts | 153° |
| 2026-05-04 15:15 | 42.15676 | 2.19109 | 17994 ft | 324 kts | 153° |
| 2026-05-04 15:15 | 42.13779 | 2.20752 | 17574 ft | 323 kts | 153° |
| 2026-05-04 15:15 | 42.11895 | 2.22383 | 17220 ft | 321 kts | 153° |
| 2026-05-04 15:16 | 42.08169 | 2.25608 | 16556 ft | 316 kts | 153° |
| 2026-05-04 15:16 | 42.06323 | 2.27205 | 16210 ft | 314 kts | 153° |
| 2026-05-04 15:16 | 42.02674 | 2.30356 | 15536 ft | 309 kts | 153° |
| 2026-05-04 15:17 | 42.00879 | 2.31899 | 15125 ft | 311 kts | 153° |
| 2026-05-04 15:17 | 41.97244 | 2.35019 | 14416 ft | 308 kts | 153° |
| 2026-05-04 15:17 | 41.95439 | 2.36571 | 14064 ft | 306 kts | 153° |
| 2026-05-04 15:18 | 41.93653 | 2.38106 | 13699 ft | 305 kts | 153° |
| 2026-05-04 15:18 | 41.91872 | 2.39634 | 13345 ft | 302 kts | 152° |
| 2026-05-04 15:18 | 41.90108 | 2.41148 | 12918 ft | 298 kts | 153° |
| 2026-05-04 15:19 | 41.86710 | 2.44063 | 11804 ft | 286 kts | 152° |
| 2026-05-04 15:19 | 41.85036 | 2.45498 | 11199 ft | 284 kts | 152° |
| 2026-05-04 15:19 | 41.81705 | 2.48343 | 9881 ft | 283 kts | 152° |
| 2026-05-04 15:20 | 41.80045 | 2.49757 | 9232 ft | 281 kts | 151° |
| 2026-05-04 15:20 | 41.78406 | 2.51157 | 8541 ft | 280 kts | 150° |
| 2026-05-04 15:20 | 41.76767 | 2.52557 | 8091 ft | 280 kts | 150° |
| 2026-05-04 15:20 | 41.75119 | 2.53966 | 7979 ft | 281 kts | 150° |
| 2026-05-04 15:21 | 41.73469 | 2.55377 | 7982 ft | 282 kts | 150° |
| 2026-05-04 15:21 | 41.71815 | 2.56794 | 7985 ft | 282 kts | 150° |
| 2026-05-04 15:21 | 41.68478 | 2.59542 | 7989 ft | 279 kts | 160° |
| 2026-05-04 15:22 | 41.66606 | 2.60085 | 7982 ft | 274 kts | 181° |
| 2026-05-04 15:22 | 41.64766 | 2.59654 | 7636 ft | 268 kts | 204° |
| 2026-05-04 15:22 | 41.61749 | 2.56815 | 6784 ft | 264 kts | 218° |
| 2026-05-04 15:23 | 41.60299 | 2.55316 | 6296 ft | 263 kts | 218° |
| 2026-05-04 15:23 | 41.58851 | 2.53822 | 5796 ft | 263 kts | 218° |
| 2026-05-04 15:23 | 41.57405 | 2.52328 | 5280 ft | 262 kts | 218° |
| 2026-05-04 15:23 | 41.55980 | 2.50860 | 5015 ft | 262 kts | 218° |
| 2026-05-04 15:24 | 41.53083 | 2.47877 | 5002 ft | 264 kts | 218° |
| 2026-05-04 15:24 | 41.50187 | 2.44891 | 4612 ft | 261 kts | 218° |
| 2026-05-04 15:25 | 41.48756 | 2.43418 | 4444 ft | 260 kts | 217° |
| 2026-05-04 15:25 | 41.47328 | 2.41949 | 4317 ft | 255 kts | 217° |
| 2026-05-04 15:25 | 41.45966 | 2.40549 | 4253 ft | 240 kts | 217° |
| 2026-05-04 15:26 | 41.43466 | 2.37992 | 4133 ft | 215 kts | 217° |
| 2026-05-04 15:26 | 41.42300 | 2.36799 | 4037 ft | 207 kts | 217° |
| 2026-05-04 15:26 | 41.40105 | 2.34554 | 3815 ft | 187 kts | 217° |
| 2026-05-04 15:27 | 41.39101 | 2.33525 | 3687 ft | 177 kts | 217° |
| 2026-05-04 15:27 | 41.37641 | 2.31136 | 3329 ft | 167 kts | 244° |
| 2026-05-04 15:28 | 41.36699 | 2.28363 | 2905 ft | 163 kts | 244° |
| 2026-05-04 15:28 | 41.36240 | 2.27010 | 2693 ft | 161 kts | 244° |
| 2026-05-04 15:28 | 41.35321 | 2.24306 | 2271 ft | 159 kts | 245° |
| 2026-05-04 15:29 | 41.34868 | 2.22973 | 2060 ft | 157 kts | 245° |
| 2026-05-04 15:30 | 41.33153 | 2.17938 | 1281 ft | 139 kts | 246° |
| 2026-05-04 15:30 | 41.31992 | 2.14534 | 729 ft | 134 kts | 246° |
| 2026-05-04 15:31 | 41.31221 | 2.12276 | 376 ft | 134 kts | 247° |
| 2026-05-04 15:31 | 41.30836 | 2.11138 | 207 ft | 134 kts | 246° |
| 2026-05-04 15:32 | 41.29923 | 2.08460 | 25 ft | 35 kts | 245° |
| 2026-05-04 15:32 | 41.29753 | 2.07958 | 17 ft | 23 kts | 256° |
| 2026-05-04 15:33 | 41.29755 | 2.07691 | 14 ft | 11 kts | 277° |
| 2026-05-04 15:34 | 41.29802 | 2.07607 | 14 ft | 0 kts | 334° |
| 2026-05-04 15:34 | 41.29818 | 2.07597 | 16 ft | 0 kts | 335° |
| 2026-05-04 15:35 | 41.29924 | 2.07539 | 16 ft | 8 kts | 338° |
| 2026-05-04 15:35 | 41.29959 | 2.07526 | 17 ft | 3 kts | 353° |
| 2026-05-04 15:35 | 41.29972 | 2.07527 | 18 ft | 6 kts | 8° |
| 2026-05-04 15:36 | 41.30018 | 2.07624 | 19 ft | 4 kts | 66° |
| 2026-05-04 15:36 | 41.30032 | 2.07669 | 18 ft | 9 kts | 66° |
| 2026-05-04 15:36 | 41.30054 | 2.07734 | 18 ft | 7 kts | 66° |
| 2026-05-04 15:37 | 41.30066 | 2.07771 | 18 ft | 8 kts | 66° |
| 2026-05-04 15:37 | 41.30095 | 2.07855 | 18 ft | 10 kts | 65° |
| 2026-05-04 15:37 | 41.30132 | 2.07885 | 19 ft | 5 kts | 8° |
| 2026-05-04 15:37 | 41.30166 | 2.07887 | 20 ft | 6 kts | 6° |
| 2026-05-04 15:38 | 41.30194 | 2.07901 | 20 ft | 3 kts | 22° |
| 2026-05-04 15:38 | 41.30221 | 2.07917 | 21 ft | 5 kts | 25° |
| 2026-05-04 15:38 | 41.30235 | 2.07926 | 22 ft | 1 kts | 25° |
| 2026-05-04 15:38 | 41.30237 | 2.07927 | 22 ft | 0 kts | 25° |
| 2026-05-04 15:39 | 41.30238 | 2.07927 | 21 ft | 0 kts | 25° |